Colby, KS

4:58 PM CST on February 13, 2016 (GMT -0600)
Shaltz

Weather History for KCBK - September, 2013

Change the Weather History Date:

Sunday, September 29, 2013

  Actual Average (KGLD) Record (KGLD)
Temperature  
Mean Temperature 60 °F 58 °F  
Max Temperature 78 °F 73 °F 94 °F (1942)
Min Temperature 42 °F 44 °F 25 °F (1985)
Degree Days  
Heating Degree Days 5 7  
Month to date heating degree days 104  
Since 1 July heating degree days 116  
Cooling Degree Days 0 1  
Month to date cooling degree days 100  
Year to date cooling degree days 933  
Growing Degree Days 10 (Base 50)    
Moisture  
Dew Point 43 °F    
Average Humidity 59    
Maximum Humidity 93    
Minimum Humidity 28    
Precipitation  
Precipitation 0.00 in 0.04 in 1.39 in (1965)
Month to date precipitation 1.18  
Year to date precipitation 17.08  
Snow  
Snow 0.00 in 0.10 in - ()
Month to date snowfall 0.4  
Since 1 July snowfall 0.4  
Since 1 September snowfall 0.4  
Snow Depth -    
Sea Level Pressure  
Sea Level Pressure 30.00 in    
Wind  
Wind Speed 10 mph (South)    
Max Wind Speed 23 mph    
Max Gust Speed 32 mph    
Visibility 10 miles    
Events      
T = Trace of Precipitation, MM = Missing Value Source: NWS Daily Summary

Daily Weather History Graph

Daily Weather History Graph

Search for Another Location

Airport or City:

Trip Planner

Search our weather history database for the weather conditions in past years. The results will help you decide how hot, cold, wet, or windy it might be!

Date:

Astronomy

Sep. 29, 2013 Rise Set
Actual Time 7:38 AM CDT 7:29 PM CDT
Civil Twilight 7:11 AM CDT 7:56 PM CDT
Nautical Twilight 6:40 AM CDT 8:27 PM CDT
Astronomical Twilight 6:09 AM CDT 8:58 PM CDT
Moon 2:23 AM CDT (9/29) 4:25 PM CDT (9/29)
Length of Visible Light 12h 44m
Length of Day
11h 50m
Waning Crescent, 27% of the Moon is Illuminated
Sep 29
Waning Crescent
Oct 4
New
Oct 11
First Quarter
Oct 18
Full
Oct 26
Last Quarter

Hourly Weather History & Observations

Time (CDT) Temp. Windchill Dew Point Humidity Pressure Visibility Wind Dir Wind Speed Gust Speed Precip Events Conditions
12:15 AM 44.6 °F 40.7 °F 41.0 °F 87% 30.14 in 10.0 mi SW 6.9 mph - N/A   Clear
12:35 AM 44.6 °F 40.2 °F 41.0 °F 87% 30.13 in 10.0 mi SW 8.1 mph - N/A   Clear
12:55 AM 44.6 °F 40.2 °F 41.0 °F 87% 30.13 in 10.0 mi SW 8.1 mph - N/A   Clear
1:15 AM 44.6 °F 40.2 °F 41.0 °F 87% 30.13 in 10.0 mi SW 8.1 mph - N/A   Clear
1:35 AM 46.4 °F 42.4 °F 41.0 °F 81% 30.13 in 10.0 mi SSW 8.1 mph - N/A   Clear
1:55 AM 46.4 °F 42.9 °F 41.0 °F 81% 30.13 in 10.0 mi SW 6.9 mph - N/A   Clear
2:15 AM 44.6 °F 40.7 °F 41.0 °F 87% 30.13 in 10.0 mi SSW 6.9 mph - N/A   Clear
2:35 AM 46.4 °F 42.9 °F 41.0 °F 81% 30.13 in 10.0 mi SSW 6.9 mph - N/A   Clear
2:55 AM 46.4 °F 42.9 °F 41.0 °F 81% 30.12 in 10.0 mi SSW 6.9 mph - N/A   Clear
3:15 AM 46.4 °F 42.9 °F 41.0 °F 81% 30.12 in 10.0 mi SSW 6.9 mph - N/A   Clear
3:35 AM 46.4 °F 42.9 °F 41.0 °F 81% 30.11 in 10.0 mi SW 6.9 mph - N/A   Clear
3:55 AM 46.4 °F 42.4 °F 41.0 °F 81% 30.10 in 10.0 mi SSW 8.1 mph - N/A   Clear
4:15 AM 46.4 °F 42.9 °F 41.0 °F 81% 30.10 in 10.0 mi SW 6.9 mph - N/A   Clear
4:35 AM 42.8 °F 38.6 °F 41.0 °F 93% 30.09 in 10.0 mi SW 6.9 mph - N/A   Clear
4:55 AM 42.8 °F 38.0 °F 41.0 °F 93% 30.09 in 10.0 mi SW 8.1 mph - N/A   Clear
5:15 AM 42.8 °F 38.6 °F 41.0 °F 93% 30.09 in 10.0 mi SW 6.9 mph - N/A   Clear
5:35 AM 42.8 °F 38.6 °F 41.0 °F 93% 30.09 in 10.0 mi SSW 6.9 mph - N/A   Clear
5:55 AM 42.8 °F 38.0 °F 39.2 °F 87% 30.09 in 10.0 mi SSW 8.1 mph - N/A   Clear
6:15 AM 46.4 °F 42.4 °F 41.0 °F 81% 30.09 in 10.0 mi SSW 8.1 mph - N/A   Clear
6:35 AM 46.4 °F 42.4 °F 41.0 °F 81% 30.08 in 10.0 mi SSW 8.1 mph - N/A   Clear
6:55 AM 46.4 °F 42.4 °F 39.2 °F 76% 30.08 in 10.0 mi SSW 8.1 mph - N/A   Clear
7:15 AM 46.4 °F 41.9 °F 39.2 °F 76% 30.08 in 10.0 mi SSW 9.2 mph - N/A   Clear
7:35 AM 46.4 °F 41.5 °F 39.2 °F 76% 30.08 in 10.0 mi SSW 10.4 mph - N/A   Clear
7:55 AM 46.4 °F 41.9 °F 41.0 °F 81% 30.07 in 10.0 mi SSW 9.2 mph - N/A   Clear
8:15 AM 48.2 °F - 41.0 °F 76% 30.08 in 10.0 mi SSW 6.9 mph - N/A   Clear
8:35 AM 50.0 °F - 41.0 °F 71% 30.07 in 10.0 mi South 4.6 mph - N/A   Clear
8:55 AM 51.8 °F - 42.8 °F 71% 30.07 in 10.0 mi SSW 6.9 mph - N/A   Clear
9:15 AM 53.6 °F - 42.8 °F 67% 30.07 in 10.0 mi SSW 6.9 mph - N/A   Clear
9:55 AM 59.0 °F - 44.6 °F 59% 30.07 in 10.0 mi SSW 11.5 mph - N/A   Clear
10:15 AM 60.8 °F - 44.6 °F 55% 30.06 in 10.0 mi South 12.7 mph - N/A   Clear
10:35 AM 62.6 °F - 44.6 °F 52% 30.06 in 10.0 mi South 10.4 mph - N/A   Clear
10:55 AM 64.4 °F - 44.6 °F 49% 30.05 in 10.0 mi South 11.5 mph - N/A   Clear
11:15 AM 64.4 °F - 44.6 °F 49% 30.04 in 10.0 mi South 12.7 mph - N/A   Clear
11:35 AM 68.0 °F - 44.6 °F 43% 30.04 in 10.0 mi South 11.5 mph - N/A   Clear
11:55 AM 69.8 °F - 44.6 °F 40% 30.03 in 10.0 mi South 12.7 mph - N/A   Clear
12:15 PM 71.6 °F - 44.6 °F 38% 30.02 in 10.0 mi South 16.1 mph 21.9 mph N/A   Clear
12:35 PM 71.6 °F - 44.6 °F 38% 30.01 in 10.0 mi South 15.0 mph 21.9 mph N/A   Clear
12:55 PM 73.4 °F - 42.8 °F 33% 30.00 in 10.0 mi South 19.6 mph 25.3 mph N/A   Clear
1:15 PM 73.4 °F - 42.8 °F 33% 29.99 in 10.0 mi South 20.7 mph 26.5 mph N/A   Clear
1:35 PM 73.4 °F - 42.8 °F 33% 29.98 in 10.0 mi South 20.7 mph 26.5 mph N/A   Clear
1:55 PM 75.2 °F - 42.8 °F 31% 29.97 in 10.0 mi South 19.6 mph - N/A   Clear
2:15 PM 77.0 °F - 42.8 °F 29% 29.95 in 10.0 mi South 19.6 mph 26.5 mph N/A   Clear
2:35 PM 77.0 °F - 42.8 °F 29% 29.93 in 10.0 mi South 16.1 mph 24.2 mph N/A   Clear
2:55 PM 77.0 °F - 41.0 °F 28% 29.92 in 10.0 mi South 18.4 mph 25.3 mph N/A   Clear
3:15 PM 77.0 °F - 41.0 °F 28% 29.92 in 10.0 mi South 19.6 mph 25.3 mph N/A   Clear
3:35 PM 77.0 °F - 42.8 °F 29% 29.91 in 10.0 mi SSE 19.6 mph 25.3 mph N/A   Clear
3:55 PM 78.8 °F - 42.8 °F 28% 29.91 in 10.0 mi SSE 18.4 mph 24.2 mph N/A   Clear
4:15 PM 77.0 °F - 44.6 °F 32% 29.90 in 10.0 mi SSE 23.0 mph 32.2 mph N/A   Clear
4:35 PM 77.0 °F - 44.6 °F 32% 29.90 in 10.0 mi SSE 20.7 mph 28.8 mph N/A   Clear
4:55 PM 77.0 °F - 46.4 °F 34% 29.90 in 10.0 mi South 17.3 mph 23.0 mph N/A   Clear
5:15 PM 77.0 °F - 46.4 °F 34% 29.90 in 10.0 mi SSE 23.0 mph - N/A   Clear
5:35 PM 75.2 °F - 46.4 °F 36% 29.89 in 10.0 mi SSE 19.6 mph 25.3 mph N/A   Clear
5:55 PM 75.2 °F - 46.4 °F 36% 29.89 in 10.0 mi SSE 20.7 mph 24.2 mph N/A   Clear
6:15 PM 73.4 °F - 46.4 °F 38% 29.89 in 10.0 mi SSE 18.4 mph 24.2 mph N/A   Clear
6:35 PM 73.4 °F - 46.4 °F 38% 29.89 in 10.0 mi SSE 15.0 mph 20.7 mph N/A   Clear
6:55 PM 71.6 °F - 46.4 °F 41% 29.89 in 10.0 mi SSE 13.8 mph - N/A   Clear
7:15 PM 68.0 °F - 48.2 °F 49% 29.88 in 10.0 mi SSE 13.8 mph - N/A   Clear
7:35 PM 68.0 °F - 48.2 °F 49% 29.88 in 10.0 mi SSE 15.0 mph - N/A   Clear
7:55 PM 66.2 °F - 46.4 °F 49% 29.88 in 10.0 mi SSE 13.8 mph 20.7 mph N/A   Clear
8:15 PM 66.2 °F - 46.4 °F 49% 29.88 in 10.0 mi SSE 16.1 mph - N/A   Clear
8:35 PM 64.4 °F - 46.4 °F 52% 29.89 in 10.0 mi SSE 13.8 mph - N/A   Clear
8:55 PM 62.6 °F - 46.4 °F 55% 29.89 in 10.0 mi South 11.5 mph - N/A   Clear
9:15 PM 60.8 °F - 46.4 °F 59% 29.89 in 10.0 mi SSE 11.5 mph - N/A   Clear
9:35 PM 60.8 °F - 46.4 °F 59% 29.89 in 10.0 mi SSE 11.5 mph - N/A   Clear
9:55 PM 60.8 °F - 46.4 °F 59% 29.89 in 10.0 mi South 11.5 mph - N/A   Clear
10:15 PM 60.8 °F - 46.4 °F 59% 29.89 in 10.0 mi South 11.5 mph - N/A   Clear
10:35 PM 60.8 °F - 46.4 °F 59% 29.89 in 10.0 mi South 12.7 mph 20.7 mph N/A   Clear
10:55 PM 60.8 °F - 46.4 °F 59% 29.89 in 10.0 mi South 10.4 mph 18.4 mph N/A   Clear
11:15 PM 59.0 °F - 46.4 °F 63% 29.90 in 10.0 mi South 9.2 mph 17.3 mph N/A   Clear
11:35 PM 57.2 °F - 46.4 °F 67% 29.90 in 10.0 mi South 9.2 mph - N/A   Clear
11:55 PM 55.4 °F - 46.4 °F 72% 29.90 in 10.0 mi SSW 8.1 mph - N/A   Clear